Terminal Aerodrome Forecast
Issued by NWS

Home | Current Version | Previous Version | Text Only | Print | Product List | Glossary On
Versions: 1 2 3 4 5 6 7 8 9 10 11 12 13 14 15
000
FTUS45 KABQ 232338
TAFLVS
TAF
KLVS 232338Z 2400/2424 22010G18KT P6SM VCTS SCT100CB BKN150
      TEMPO 2400/2403 VRB20G30KT -SHRA BKN090
     FM240300 VRB05KT P6SM VCSH SCT100 BKN150
     FM240800 VRB05KT P6SM SCT150
     FM241800 14011KT P6SM FEW100
     FM242100 16013KT P6SM VCTS SCT100CB BKN200=

USA.gov is the U.S. government's official web portal to all federal, state and local government web resources and services.